CheckWX is a tool to help pilots better visualize weather data.  It is not intended as a substitute for an official pre-flight weather briefing.

13:39:08 UTC

H71 METAR
Mid-America Industrial Airport
Pryor, Oklahoma, USA
Current

24 mins ago

KH71 291315Z AUTO 01009KT 10SM OVC007 01/01 A3008 RMK AO2
Observed
Jan-29 @ 13:15 UTC
Wind
  • 010° at 9 KTS
Visibility
10 SM
Flight Rules
IFR
Cloud Levels
  • Overcast at 700' AGL
Temperature
C / 34°F
Dewpoint
C / 34°F
Humidity
100%
Altimeter
30.08" Hg
Pressure
1018.62 hPa
Previous

44 mins ago

KH71 291255Z AUTO 01010KT 8SM OVC006 01/01 A3007 RMK AO2
Observed
Jan-29 @ 12:55 UTC
Wind
  • 010° at 10 KTS
Visibility
8 SM
Flight Rules
IFR
Cloud Levels
  • Overcast at 600' AGL
Temperature
C / 34°F
Dewpoint
C / 34°F
Humidity
100%
Altimeter
30.07" Hg
Pressure
1018.32 hPa
Previous

1 hour ago

KH71 291235Z AUTO 36011KT 5SM -UP OVC006 01/01 A3007 RMK AO2
Observed
Jan-29 @ 12:35 UTC
Wind
  • 360° at 11 KTS
Visibility
5 SM
Flight Rules
IFR
Conditions
Unknown precipitation
Cloud Levels
  • Overcast at 600' AGL
Temperature
C / 34°F
Dewpoint
C / 34°F
Humidity
100%
Altimeter
30.07" Hg
Pressure
1018.32 hPa